createdAt,value
2022-08-05T00:02:50.381Z,17.58
2022-08-05T00:06:05.468Z,17.47
2022-08-05T00:09:50.776Z,17.42
2022-08-05T00:13:04.536Z,17.31
2022-08-05T00:16:08.705Z,17.35
2022-08-05T00:19:25.027Z,17.29
2022-08-05T00:22:36.284Z,17.30
2022-08-05T00:25:50.762Z,17.26
2022-08-05T00:29:37.863Z,17.31
2022-08-05T00:33:07.514Z,17.36
2022-08-05T00:37:10.545Z,17.28
2022-08-05T00:40:03.644Z,17.23
2022-08-05T00:46:43.417Z,17.10
2022-08-05T00:50:08.398Z,17.07
2022-08-05T00:54:00.868Z,17.03
2022-08-05T00:56:51.733Z,17.02
2022-08-05T01:00:05.198Z,17.02
2022-08-05T01:03:33.366Z,17.09
2022-08-05T01:06:48.687Z,17.08
2022-08-05T01:09:56.733Z,17.09
2022-08-05T01:13:13.308Z,17.09
2022-08-05T01:16:44.471Z,17.11
2022-08-05T01:20:14.214Z,17.10
2022-08-05T01:23:39.768Z,17.12
2022-08-05T01:27:26.649Z,17.10
2022-08-05T01:30:53.570Z,17.07
2022-08-05T01:34:29.886Z,17.11
2022-08-05T01:37:44.281Z,16.99
2022-08-05T01:40:59.487Z,17.00
2022-08-05T01:44:19.275Z,16.99
2022-08-05T01:47:43.441Z,17.02
2022-08-05T01:51:14.279Z,17.01
2022-08-05T01:54:18.433Z,16.99
2022-08-05T01:58:29.306Z,17.02
2022-08-05T02:04:55.455Z,16.91
2022-08-05T02:08:05.662Z,16.95
2022-08-05T02:11:16.596Z,16.86
2022-08-05T02:14:44.020Z,16.89
2022-08-05T02:18:32.992Z,16.91
2022-08-05T02:21:38.023Z,16.74
2022-08-05T02:25:04.437Z,16.68
2022-08-05T02:28:29.149Z,16.81
2022-08-05T02:31:54.939Z,16.77
2022-08-05T02:35:19.157Z,16.68
2022-08-05T02:38:43.284Z,16.59
2022-08-05T02:42:00.698Z,16.46
2022-08-05T02:45:08.139Z,16.58
2022-08-05T02:48:18.736Z,16.64
2022-08-05T02:52:04.496Z,16.66
2022-08-05T02:55:12.294Z,16.68
2022-08-05T02:58:27.149Z,16.34
2022-08-05T03:01:38.934Z,16.05
2022-08-05T03:04:42.825Z,15.89
2022-08-05T03:08:04.501Z,15.87
2022-08-05T03:11:55.693Z,15.82
2022-08-05T03:14:48.377Z,15.77
2022-08-05T03:17:57.659Z,15.76
2022-08-05T03:21:04.518Z,15.54
2022-08-05T03:24:27.544Z,15.58
2022-08-05T03:27:58.892Z,15.54
2022-08-05T03:31:00.680Z,15.48
2022-08-05T03:34:06.440Z,15.42
2022-08-05T03:41:03.951Z,15.39
2022-08-05T03:47:30.580Z,15.32
2022-08-05T03:50:43.274Z,15.29
2022-08-05T03:55:50.631Z,15.28
2022-08-05T03:57:41.794Z,15.25
2022-08-05T04:00:51.579Z,15.16
2022-08-05T04:07:58.562Z,15.22
2022-08-05T04:11:10.691Z,15.19
2022-08-05T04:14:18.186Z,15.23
2022-08-05T04:17:55.625Z,15.21
2022-08-05T04:21:00.172Z,15.15
2022-08-05T04:24:19.613Z,15.15
2022-08-05T04:27:57.368Z,15.14
2022-08-05T04:31:01.712Z,15.24
2022-08-05T04:34:33.966Z,15.24
2022-08-05T04:37:42.259Z,15.33
2022-08-05T04:41:10.154Z,15.23
2022-08-05T04:44:10.883Z,15.32
2022-08-05T04:47:23.617Z,15.27
2022-08-05T04:50:34.671Z,15.32
2022-08-05T04:53:45.714Z,15.29
2022-08-05T04:56:48.661Z,15.29
2022-08-05T04:59:58.549Z,15.23
2022-08-05T05:03:03.141Z,15.32
2022-08-05T05:06:37.051Z,15.34
2022-08-05T05:09:38.190Z,15.30
2022-08-05T05:12:52.335Z,15.47
2022-08-05T05:15:59.318Z,15.42
2022-08-05T05:19:23.472Z,15.33
2022-08-05T05:22:33.005Z,15.49
2022-08-05T05:25:50.300Z,15.65
2022-08-05T05:28:54.024Z,15.67
2022-08-05T05:32:15.589Z,15.82
2022-08-05T05:35:34.184Z,16.11
2022-08-05T06:00:34.083Z,15.92
2022-08-05T06:03:54.042Z,15.72
2022-08-05T06:07:04.968Z,15.80
2022-08-05T06:10:10.133Z,15.78
2022-08-05T06:13:21.006Z,15.83
2022-08-05T06:16:32.846Z,15.98
2022-08-05T06:19:57.080Z,16.12
2022-08-05T06:23:04.911Z,16.24
2022-08-05T06:26:24.971Z,16.25
2022-08-05T06:48:37.246Z,17.76
2022-08-05T06:51:29.068Z,18.41
2022-08-05T06:54:41.556Z,18.76
2022-08-05T08:52:05.770Z,18.00
2022-08-05T09:36:55.403Z,18.07
2022-08-05T09:53:54.681Z,18.13
2022-08-05T10:36:43.593Z,17.40
2022-08-05T10:53:17.568Z,17.39
2022-08-05T10:56:26.391Z,17.22
2022-08-05T11:00:03.062Z,16.88
2022-08-05T11:03:24.419Z,16.94
2022-08-05T11:06:47.321Z,17.08
2022-08-05T11:10:10.047Z,16.50
2022-08-05T11:13:12.297Z,16.21
2022-08-05T11:16:56.081Z,16.30
2022-08-05T11:20:16.926Z,16.26
2022-08-05T11:24:04.819Z,16.15
2022-08-05T11:27:51.154Z,16.35
2022-08-05T11:31:56.778Z,16.57
2022-08-05T11:35:09.836Z,16.31
2022-08-05T11:38:29.583Z,16.63
2022-08-05T11:42:01.232Z,16.48
2022-08-05T11:45:27.055Z,16.10
2022-08-05T11:48:39.124Z,15.92
2022-08-05T11:51:49.801Z,15.86
2022-08-05T11:55:07.056Z,15.53
2022-08-05T11:58:11.830Z,15.88
2022-08-05T12:01:21.839Z,16.33
2022-08-05T12:04:29.823Z,16.26
2022-08-05T12:08:03.275Z,16.70
2022-08-05T12:11:39.678Z,17.03
2022-08-05T12:15:19.196Z,16.89
2022-08-05T12:20:26.026Z,17.46
2022-08-05T12:22:52.772Z,17.74
2022-08-05T12:26:13.953Z,17.85
2022-08-05T12:29:23.592Z,17.81
2022-08-05T12:32:32.872Z,17.66
2022-08-05T12:35:39.437Z,17.72
2022-08-05T12:38:54.105Z,17.92
2022-08-05T12:45:42.555Z,17.92
2022-08-05T12:48:53.935Z,18.18
2022-08-05T12:52:23.802Z,18.16
2022-08-05T12:55:41.590Z,18.09
2022-08-05T12:59:00.953Z,18.42
2022-08-05T13:02:35.348Z,18.79
2022-08-05T13:09:37.737Z,19.21
2022-08-05T15:18:38.669Z,20.48
2022-08-05T15:22:02.280Z,20.26
2022-08-05T15:25:53.292Z,20.00
2022-08-05T15:28:58.504Z,19.99
2022-08-05T15:40:59.707Z,18.59
2022-08-05T15:43:57.848Z,18.07
2022-08-05T15:47:04.619Z,18.07
2022-08-05T15:50:09.120Z,18.29
2022-08-05T15:53:20.191Z,18.33
2022-08-05T15:56:22.789Z,18.35
2022-08-05T16:07:53.581Z,18.41
2022-08-05T16:11:40.214Z,18.05
2022-08-05T16:19:09.838Z,18.03
2022-08-05T16:22:15.575Z,18.06
2022-08-05T16:25:26.841Z,18.03
2022-08-05T16:28:44.447Z,18.16
2022-08-05T16:34:51.127Z,18.16
2022-08-05T16:38:03.315Z,17.78
2022-08-05T17:58:02.979Z,16.15
2022-08-05T18:01:49.428Z,16.13
2022-08-05T18:04:55.072Z,16.24
2022-08-05T18:08:25.787Z,16.16
2022-08-05T18:11:36.032Z,16.07
2022-08-05T18:14:45.985Z,15.92
2022-08-05T18:20:56.453Z,15.75
2022-08-05T18:23:58.643Z,15.62
2022-08-05T18:27:05.646Z,15.59
2022-08-05T18:30:30.281Z,15.41
2022-08-05T18:33:59.060Z,15.32
2022-08-05T18:37:12.632Z,15.25
2022-08-05T18:41:52.775Z,15.16
2022-08-05T18:44:11.631Z,15.10
2022-08-05T18:47:22.609Z,15.01
2022-08-05T18:50:42.272Z,14.95
2022-08-05T18:57:52.756Z,14.76
2022-08-05T19:01:01.358Z,14.61
2022-08-05T19:04:12.253Z,14.51
2022-08-05T19:07:18.050Z,14.53
2022-08-05T19:10:27.960Z,14.41
2022-08-05T19:13:38.635Z,14.33
2022-08-05T19:16:47.260Z,14.27
2022-08-05T19:19:59.544Z,14.23
2022-08-05T19:24:03.250Z,14.14
2022-08-05T19:26:31.931Z,14.12
2022-08-05T19:29:47.233Z,14.02
2022-08-05T19:32:51.725Z,13.99
2022-08-05T19:36:02.984Z,13.91
2022-08-05T19:39:07.775Z,13.79
2022-08-05T19:42:34.954Z,13.79
2022-08-05T21:20:53.801Z,12.86
2022-08-05T21:24:00.169Z,12.76
2022-08-05T21:27:14.064Z,12.82
2022-08-05T21:30:18.419Z,12.83
2022-08-05T21:33:39.900Z,12.77
2022-08-05T21:36:42.780Z,12.64
2022-08-05T21:39:53.708Z,12.63
2022-08-05T21:43:05.718Z,12.56
2022-08-05T21:46:11.749Z,12.51
2022-08-05T21:49:48.434Z,12.53
2022-08-05T21:53:08.318Z,12.64
2022-08-05T21:56:28.335Z,12.60
2022-08-05T21:59:48.038Z,12.57
2022-08-05T22:03:09.825Z,12.55
2022-08-05T22:06:14.343Z,12.57
2022-08-05T22:09:45.958Z,12.49
2022-08-05T22:12:53.211Z,12.49
2022-08-05T22:16:41.421Z,12.48
2022-08-05T22:20:01.660Z,12.47
2022-08-05T22:24:00.996Z,12.35
2022-08-05T22:27:17.245Z,12.32
2022-08-05T22:30:32.093Z,12.26
2022-08-05T22:33:55.818Z,12.36
2022-08-05T22:36:58.291Z,12.32
2022-08-05T22:40:07.662Z,12.22
2022-08-05T22:43:13.679Z,12.19
2022-08-05T22:46:23.447Z,12.21
2022-08-05T22:50:19.962Z,12.14
2022-08-05T22:53:02.794Z,12.27
2022-08-05T22:56:10.019Z,12.23
2022-08-05T22:59:46.265Z,12.11
2022-08-05T23:02:46.460Z,12.01
2022-08-05T23:05:54.818Z,12.06
2022-08-05T23:08:57.290Z,12.01
2022-08-05T23:12:25.246Z,12.01
2022-08-05T23:15:35.215Z,12.02
2022-08-05T23:18:42.847Z,11.96
2022-08-05T23:21:48.515Z,12.00
2022-08-05T23:24:55.778Z,11.99
2022-08-05T23:28:00.871Z,11.90
2022-08-05T23:31:17.013Z,11.87
2022-08-05T23:34:24.365Z,11.84
2022-08-05T23:37:36.474Z,11.90
2022-08-05T23:40:50.087Z,11.89
2022-08-05T23:44:06.199Z,11.82
2022-08-05T23:47:14.642Z,11.83
2022-08-05T23:50:26.520Z,11.83
2022-08-05T23:53:28.326Z,11.80
2022-08-05T23:56:52.968Z,11.80
